Time;durP1;ratioP1;P1;durP2;ratioP2;P2;SDS_P1;SDS_P2;PMS_P1;PMS_P2;Temp;Humidity;BMP_temperature;BMP_pressure;BME280_temperature;BME280_humidity;BME280_pressure;Samples;Min_cycle;Max_cycle;Signal;HPM_P1;HPM_P2
2021/04/11 00:00:41;;;;;;;15.03;6.97;;;;;;;4.29;62.74;101931.91;1788633;80;21022;-55
2021/04/11 00:03:18;;;;;;;16.97;7.47;;;;;;;4.30;62.37;101930.57;1768818;81;21079;-55
2021/04/11 00:05:48;;;;;;;15.08;7.65;;;;;;;4.29;61.89;101938.09;1757365;81;21093;-55
2021/04/11 00:08:16;;;;;;;21.48;8.05;;;;;;;4.32;61.54;101935.04;1768689;81;21146;-55
2021/04/11 00:10:47;;;;;;;17.87;8.03;;;;;;;4.31;61.38;101936.78;1757378;81;21105;-55
2021/04/11 00:13:30;;;;;;;20.75;8.38;;;;;;;4.29;61.31;101940.74;1768694;81;21138;-55
2021/04/11 00:15:58;;;;;;;17.98;7.90;;;;;;;4.29;61.31;101940.74;1757478;81;21482;-54
2021/04/11 00:18:25;;;;;;;24.12;8.65;;;;;;;4.25;60.49;101940.27;1769642;81;21358;-55
2021/04/11 00:20:56;;;;;;;23.47;8.33;;;;;;;4.25;60.49;101940.27;1790190;80;21164;-54
2021/04/11 00:23:27;;;;;;;21.52;8.58;;;;;;;4.26;60.65;101946.48;1790248;80;21117;-54
2021/04/11 00:25:54;;;;;;;18.98;8.78;;;;;;;4.21;60.74;101943.77;1790252;80;21005;-54
2021/04/11 00:28:22;;;;;;;22.35;8.45;;;;;;;4.15;60.69;101943.70;1790262;80;21025;-55
2021/04/11 00:30:51;;;;;;;19.02;8.20;;;;;;;4.07;60.57;101950.67;1790396;80;22262;-55
2021/04/11 00:33:26;;;;;;;19.73;8.25;;;;;;;3.96;60.47;101950.12;1790164;80;21153;-55
2021/04/11 00:36:05;;;;;;;21.25;8.93;;;;;;;3.96;60.47;101950.12;1787097;80;21168;-54
2021/04/11 00:38:40;;;;;;;21.33;8.97;;;;;;;3.94;60.80;101954.53;1873092;76;22672;-54
2021/04/11 00:41:12;;;;;;;22.93;9.65;;;;;;;3.80;60.79;101949.48;1840899;78;20929;-55
2021/04/11 00:43:44;;;;;;;16.90;9.13;;;;;;;3.71;61.08;101955.14;1840938;78;21315;-54
2021/04/11 00:46:41;;;;;;;20.60;9.80;;;;;;;3.63;61.21;101956.78;1840878;78;21163;-55
2021/04/11 00:49:14;;;;;;;20.45;8.45;;;;;;;3.59;61.17;101962.92;1840934;78;20947;-54
2021/04/11 00:51:41;;;;;;;17.77;8.00;;;;;;;3.51;60.83;101956.18;1840896;78;21037;-54
2021/04/11 00:54:09;;;;;;;16.40;8.28;;;;;;;3.52;60.24;101969.02;1811108;78;21068;-54
2021/04/11 00:56:38;;;;;;;17.05;7.78;;;;;;;3.51;58.86;101970.77;1836514;78;21302;-55
2021/04/11 00:59:08;;;;;;;18.05;8.08;;;;;;;3.51;58.86;101970.77;1810009;78;20924;-55
2021/04/11 01:01:39;;;;;;;19.73;7.22;;;;;;;3.53;58.14;101965.50;1828083;78;21066;-56
2021/04/11 01:04:10;;;;;;;16.02;7.60;;;;;;;3.56;57.45;101977.05;1828019;78;21154;-55
2021/04/11 01:06:51;;;;;;;16.40;7.22;;;;;;;3.57;57.25;101973.95;1827844;77;21118;-55
2021/04/11 01:09:29;;;;;;;15.85;7.87;;;;;;;3.57;56.87;101973.95;1828079;78;21408;-55
2021/04/11 01:12:00;;;;;;;18.95;7.67;;;;;;;3.57;56.69;101971.30;1827978;78;21478;-55
2021/04/11 01:14:31;;;;;;;15.23;6.87;;;;;;;3.57;56.67;101974.85;1828049;78;20888;-55
2021/04/11 01:16:59;;;;;;;13.43;7.25;;;;;;;3.56;56.53;101968.19;1827926;78;21059;-54
2021/04/11 01:19:34;;;;;;;16.05;7.33;;;;;;;3.54;56.53;101973.48;1839940;78;21480;-54
2021/04/11 01:22:25;;;;;;;14.13;7.22;;;;;;;3.57;56.37;101968.64;1840984;78;21354;-54
2021/04/11 01:24:56;;;;;;;16.12;6.58;;;;;;;3.59;56.16;101970.88;1840857;78;21009;-54
2021/04/11 01:27:31;;;;;;;13.60;6.22;;;;;;;3.67;55.27;101973.64;1840825;78;21532;-55
2021/04/11 01:29:59;;;;;;;17.20;6.53;;;;;;;3.73;54.81;101979.92;1841212;78;21456;-54
2021/04/11 01:32:27;;;;;;;21.52;6.22;;;;;;;3.81;54.27;101981.35;1810607;78;21531;-54
2021/04/11 01:34:56;;;;;;;19.07;7.10;;;;;;;3.86;53.96;101963.72;1840953;78;21678;-54
2021/04/11 01:37:24;;;;;;;20.82;6.90;;;;;;;3.91;53.75;101971.75;1840694;77;21021;-54
2021/04/11 01:39:52;;;;;;;21.90;9.13;;;;;;;3.93;53.66;101969.09;1810861;78;21575;-54
2021/04/11 01:42:21;;;;;;;27.10;11.10;;;;;;;3.93;53.91;101970.42;1840828;78;20875;-54
2021/04/11 01:44:50;;;;;;;28.67;12.35;;;;;;;3.90;54.07;101965.98;1811177;78;21044;-55
2021/04/11 01:47:18;;;;;;;31.48;13.53;;;;;;;3.88;54.07;101971.72;1810516;78;21334;-54
2021/04/11 01:49:47;;;;;;;31.20;13.22;;;;;;;3.86;53.94;101968.13;1810596;78;21068;-56
2021/04/11 01:52:21;;;;;;;28.15;13.50;;;;;;;3.85;53.97;101972.55;1840227;78;20993;-56
2021/04/11 01:54:49;;;;;;;33.92;16.05;;;;;;;3.84;53.75;101972.52;1840279;78;20887;-55
2021/04/11 01:57:24;;;;;;;38.13;13.83;;;;;;;3.84;53.58;101972.10;1832318;78;21483;-55
2021/04/11 02:00:02;;;;;;;36.98;13.60;;;;;;;3.86;53.59;101972.10;1827317;78;21345;-55
2021/04/11 02:02:31;;;;;;;23.35;9.40;;;;;;;3.86;53.35;101969.03;1826144;78;21181;-55
2021/04/11 02:04:59;;;;;;;24.72;8.45;;;;;;;3.88;53.21;101963.76;1827423;78;20876;-56
2021/04/11 02:07:28;;;;;;;31.02;9.33;;;;;;;3.88;52.99;101970.39;1827422;78;21467;-55
2021/04/11 02:09:57;;;;;;;30.25;8.85;;;;;;;3.90;53.07;101977.02;1827430;78;20991;-56
2021/04/11 02:12:33;;;;;;;28.15;10.32;;;;;;;3.89;52.92;101965.53;1762327;78;21363;-55
2021/04/11 02:15:27;;;;;;;28.42;12.03;;;;;;;3.87;53.19;101967.28;1826887;78;21131;-54
2021/04/11 02:17:55;;;;;;;24.23;10.32;;;;;;;3.87;53.18;101975.24;1831148;78;21535;-56
2021/04/11 02:20:26;;;;;;;26.97;12.63;;;;;;;3.85;53.31;101976.95;1840278;78;21096;-55
2021/04/11 02:22:54;;;;;;;30.52;12.28;;;;;;;3.84;53.82;101975.17;1840020;78;21115;-55
2021/04/11 02:25:26;;;;;;;41.40;12.95;;;;;;;3.84;53.82;101975.17;1840274;78;22361;-55
2021/04/11 02:27:55;;;;;;;42.43;14.47;;;;;;;3.75;54.50;101975.07;1838980;78;21556;-55
2021/04/11 02:30:26;;;;;;;35.33;15.28;;;;;;;3.75;54.50;101975.07;1840246;78;21001;-55
2021/04/11 02:32:55;;;;;;;36.70;13.68;;;;;;;3.70;54.67;101969.70;1840241;78;21135;-54
2021/04/11 02:35:25;;;;;;;34.23;14.03;;;;;;;3.66;54.99;101978.06;1840249;78;21124;-54
2021/04/11 02:37:59;;;;;;;30.12;12.33;;;;;;;3.61;55.42;101981.06;1840187;77;21178;-55
2021/04/11 02:40:35;;;;;;;31.50;13.03;;;;;;;3.58;55.81;101980.61;1840250;78;21485;-55
2021/04/11 02:43:06;;;;;;;35.28;13.70;;;;;;;3.58;56.13;101987.66;1839588;78;21567;-54
2021/04/11 02:45:36;;;;;;;36.33;14.47;;;;;;;3.57;56.36;101984.55;1810560;78;21163;-55
2021/04/11 02:48:08;;;;;;;32.42;11.93;;;;;;;3.57;56.58;101977.92;1840236;78;21112;-54
2021/04/11 02:50:40;;;;;;;33.75;13.95;;;;;;;3.56;56.79;101980.13;1839411;78;22710;-54
2021/04/11 02:53:14;;;;;;;38.85;13.62;;;;;;;3.56;57.08;101988.08;1840239;78;20922;-55
2021/04/11 02:55:42;;;;;;;36.23;14.05;;;;;;;3.55;57.32;101988.95;1839461;78;21445;-55
2021/04/11 02:58:12;;;;;;;33.40;13.43;;;;;;;3.56;57.52;101986.33;1827575;78;21458;-55
2021/04/11 03:00:48;;;;;;;30.08;13.45;;;;;;;3.56;57.52;101986.33;1809027;78;21577;-55
2021/04/11 03:03:17;;;;;;;35.28;12.78;;;;;;;3.60;57.81;101977.97;1825411;78;22573;-55
2021/04/11 03:05:45;;;;;;;27.45;13.58;;;;;;;3.64;57.94;101975.80;1827224;78;20976;-55
2021/04/11 03:08:16;;;;;;;25.55;11.53;;;;;;;3.68;58.15;101978.98;1827263;78;21090;-56
2021/04/11 03:11:15;;;;;;;24.37;9.68;;;;;;;3.68;58.15;101978.98;1827297;78;21522;-55
2021/04/11 03:13:43;;;;;;;24.50;10.82;;;;;;;3.69;58.52;101988.72;1827307;78;21110;-54
2021/04/11 03:16:14;;;;;;;27.10;11.05;;;;;;;3.71;58.42;101982.09;1827322;78;21030;-54
2021/04/11 03:18:43;;;;;;;26.93;10.00;;;;;;;3.70;58.57;101980.30;1835183;78;21020;-55
2021/04/11 03:21:11;;;;;;;28.45;10.20;;;;;;;3.67;58.83;101981.17;1809943;78;21148;-56
2021/04/11 03:23:39;;;;;;;23.42;9.23;;;;;;;3.64;59.35;101983.76;1840128;78;20930;-55
2021/04/11 03:26:48;;;;;;;23.35;10.00;;;;;;;3.62;59.60;101986.83;1838375;78;21068;-54
2021/04/11 03:29:44;;;;;;;22.48;10.63;;;;;;;3.60;59.59;101987.24;1840032;78;21351;-53
2021/04/11 03:32:23;;;;;;;18.80;9.78;;;;;;;3.61;59.75;101991.68;1840083;78;21150;-54
2021/04/11 03:34:53;;;;;;;17.60;9.40;;;;;;;3.62;59.17;101989.94;1840123;78;21034;-54
2021/04/11 03:37:22;;;;;;;19.70;9.63;;;;;;;3.68;58.91;101995.31;1783727;77;21525;-53
2021/04/11 03:39:51;;;;;;;24.35;9.60;;;;;;;3.71;58.60;101997.58;1840282;78;21410;-54
2021/04/11 03:42:21;;;;;;;22.30;10.03;;;;;;;3.76;58.67;101998.08;1840185;78;21515;-54
2021/04/11 03:44:56;;;;;;;22.50;10.38;;;;;;;3.78;58.49;101996.33;1840082;78;20986;-54
2021/04/11 03:47:34;;;;;;;23.50;9.90;;;;;;;3.82;58.42;101995.07;1840337;78;20938;-54
2021/04/11 03:50:13;;;;;;;22.13;10.23;;;;;;;3.85;58.11;101992.87;1840157;78;21029;-54
2021/04/11 03:52:59;;;;;;;22.32;11.50;;;;;;;3.88;57.70;102000.91;1837923;78;21146;-56
2021/04/11 03:55:34;;;;;;;25.95;11.33;;;;;;;3.92;58.01;102008.02;1840160;78;20945;-55
2021/04/11 03:58:08;;;;;;;21.93;11.25;;;;;;;3.92;57.96;101997.41;1828256;78;21180;-55
2021/04/11 04:00:43;;;;;;;25.27;11.60;;;;;;;3.97;58.05;102002.33;1826695;78;20936;-55
2021/04/11 04:03:14;;;;;;;23.83;10.35;;;;;;;4.00;58.24;101999.71;1827303;78;21035;-55
2021/04/11 04:05:42;;;;;;;26.80;10.70;;;;;;;4.01;57.94;102000.63;1809301;78;21034;-56
2021/04/11 04:08:11;;;;;;;22.85;8.80;;;;;;;4.08;57.90;102002.89;1827300;78;22823;-55
2021/04/11 04:10:42;;;;;;;19.12;8.55;;;;;;;4.13;57.02;101994.56;1809121;78;21504;-55
2021/04/11 04:14:00;;;;;;;20.48;9.43;;;;;;;4.21;57.16;102002.63;1827055;78;21059;-54
2021/04/11 04:16:45;;;;;;;19.98;9.65;;;;;;;4.26;56.44;102004.44;1827258;78;21012;-54
2021/04/11 04:19:22;;;;;;;19.92;10.32;;;;;;;4.38;56.30;102009.45;1837954;78;21096;-55
2021/04/11 04:22:28;;;;;;;29.70;8.70;;;;;;;4.48;56.24;102009.98;1840301;78;21872;-55
2021/04/11 04:25:15;;;;;;;19.57;9.13;;;;;;;4.56;55.38;102004.75;1838224;78;21084;-54
2021/04/11 04:28:01;;;;;;;15.73;8.30;;;;;;;4.74;55.03;102005.36;1873049;76;25548;-55
2021/04/11 04:30:51;;;;;;;17.42;9.18;;;;;;;4.81;54.48;102011.63;1840899;78;21464;-56
2021/04/11 04:33:40;;;;;;;19.82;9.88;;;;;;;4.93;53.85;102000.22;1840947;78;21348;-54
2021/04/11 04:36:14;;;;;;;20.08;9.45;;;;;;;5.06;53.00;102000.79;1838286;78;20965;-55
2021/04/11 04:39:17;;;;;;;15.40;8.85;;;;;;;5.21;53.01;102013.77;1840450;78;20958;-55
2021/04/11 04:42:14;;;;;;;22.93;11.45;;;;;;;5.35;52.58;102013.86;1827981;78;21005;-55
2021/04/11 04:45:13;;;;;;;25.40;10.35;;;;;;;5.47;52.39;102017.05;1840963;78;20993;-55
2021/04/11 04:47:56;;;;;;;28.12;11.85;;;;;;;5.58;52.08;102014.00;1840848;78;21308;-54
2021/04/11 04:50:31;;;;;;;24.37;11.75;;;;;;;5.71;51.67;102007.88;1840816;78;20973;-55
2021/04/11 04:53:21;;;;;;;18.45;9.65;;;;;;;5.84;51.18;102018.56;1840852;78;21041;-55
2021/04/11 04:55:52;;;;;;;21.42;11.80;;;;;;;5.98;50.74;102015.55;1840953;78;21605;-56
2021/04/11 04:58:28;;;;;;;30.95;13.45;;;;;;;6.09;50.70;102012.96;1827994;78;21078;-55
2021/04/11 05:01:15;;;;;;;26.77;14.45;;;;;;;6.20;50.87;102013.46;1824414;78;21365;-55
2021/04/11 05:03:48;;;;;;;33.18;15.35;;;;;;;6.27;51.23;102013.45;1827876;77;21142;-55
2021/04/11 05:06:30;;;;;;;29.60;15.08;;;;;;;6.36;51.24;102007.27;1827512;78;21054;-55
2021/04/11 05:09:10;;;;;;;25.73;14.53;;;;;;;6.48;51.24;102009.08;1828059;78;21086;-55
2021/04/11 05:11:43;;;;;;;36.33;17.12;;;;;;;6.63;50.54;102020.66;1827998;78;20964;-55
2021/04/11 05:14:22;;;;;;;35.95;18.55;;;;;;;6.72;50.23;102013.58;1827932;78;21546;-55
2021/04/11 05:17:00;;;;;;;42.60;21.95;;;;;;;6.85;49.95;102025.14;1827897;78;21010;-55
2021/04/11 05:19:40;;;;;;;29.82;16.35;;;;;;;6.98;49.76;102019.83;1824996;78;21467;-55
2021/04/11 05:22:33;;;;;;;34.65;14.30;;;;;;;7.13;49.37;102029.14;1804171;78;21486;-55
2021/04/11 05:25:11;;;;;;;29.18;13.25;;;;;;;7.30;49.21;102036.26;1735735;82;20891;-55
2021/04/11 05:28:04;;;;;;;21.85;11.63;;;;;;;7.51;48.77;102042.47;1735683;82;22133;-55
2021/04/11 05:30:41;;;;;;;21.77;12.23;;;;;;;7.68;48.20;102042.00;1706796;82;21125;-56
2021/04/11 05:33:10;;;;;;;28.67;10.75;;;;;;;7.87;48.19;102033.94;1734850;81;21082;-55
2021/04/11 05:35:38;;;;;;;22.00;10.08;;;;;;;8.05;48.05;102037.42;1735363;82;21098;-55
2021/04/11 05:38:23;;;;;;;15.90;9.13;;;;;;;8.28;47.63;102038.67;1735234;82;21082;-55
2021/04/11 05:40:58;;;;;;;11.57;6.72;;;;;;;8.57;46.64;102039.89;1686476;82;21234;-55
2021/04/11 05:43:54;;;;;;;12.05;6.17;;;;;;;9.09;44.32;102042.22;1735124;82;21608;-55
2021/04/11 05:46:37;;;;;;;13.10;6.00;;;;;;;9.64;43.03;102046.18;1734968;82;20995;-54
2021/04/11 05:49:22;;;;;;;10.93;5.87;;;;;;;10.24;40.96;102052.62;1734973;82;21011;-56
2021/04/11 05:51:59;;;;;;;11.65;5.75;;;;;;;10.43;40.42;102047.05;1735067;82;21635;-56
2021/04/11 05:54:32;;;;;;;10.23;5.25;;;;;;;10.46;40.12;102047.91;1704068;82;21376;-55
2021/04/11 05:57:08;;;;;;;13.40;6.47;;;;;;;10.44;39.23;102068.50;1749423;81;21038;-55
2021/04/11 05:59:44;;;;;;;22.62;5.90;;;;;;;10.39;39.66;102069.42;1764074;81;20957;-55
2021/04/11 06:02:17;;;;;;;12.37;5.75;;;;;;;10.37;39.79;102067.22;1763914;81;20953;-55
2021/04/11 06:05:00;;;;;;;14.65;5.78;;;;;;;10.38;39.78;102073.88;1780035;80;22370;-56
2021/04/11 06:07:42;;;;;;;12.15;5.03;;;;;;;10.49;39.57;102079.13;1764054;81;21343;-55
2021/04/11 06:10:26;;;;;;;10.03;4.92;;;;;;;10.68;38.70;102065.48;1732027;82;21154;-55
2021/04/11 06:12:59;;;;;;;12.27;5.53;;;;;;;10.84;38.34;102072.40;1780070;80;21075;-56
2021/04/11 06:15:34;;;;;;;11.57;5.30;;;;;;;10.94;38.33;102072.25;1763912;81;21495;-55
2021/04/11 06:18:05;;;;;;;7.92;4.90;;;;;;;11.04;37.91;102075.23;1755489;81;21016;-55
2021/04/11 06:20:32;;;;;;;8.23;4.87;;;;;;;11.11;37.35;102084.95;1762268;81;21212;-55
2021/04/11 06:23:29;;;;;;;9.65;4.85;;;;;;;11.15;37.01;102071.03;1762245;81;21588;-55
2021/04/11 06:26:29;;;;;;;13.70;5.50;;;;;;;11.20;37.10;102073.66;1762328;81;20951;-55
2021/04/11 06:29:20;;;;;;;11.50;5.65;;;;;;;11.34;38.62;102076.11;1762342;81;21118;-55
2021/04/11 06:31:57;;;;;;;9.83;5.05;;;;;;;11.46;38.59;102067.82;1762291;81;21204;-55
2021/04/11 06:34:44;;;;;;;12.05;4.67;;;;;;;11.58;37.93;102070.74;1762484;81;22142;-55
2021/04/11 06:37:19;;;;;;;16.32;5.00;;;;;;;11.68;37.29;102076.83;1762276;81;21022;-55
2021/04/11 06:39:49;;;;;;;11.15;4.47;;;;;;;11.74;36.90;102078.95;1762284;81;21156;-55
2021/04/11 06:42:34;;;;;;;12.00;3.90;;;;;;;11.87;36.86;102078.73;1762345;81;21003;-55
2021/04/11 06:45:28;;;;;;;9.08;3.75;;;;;;;11.99;34.38;102089.23;1762450;81;20995;-55
2021/04/11 06:48:43;;;;;;;12.75;4.60;;;;;;;12.07;33.50;102086.91;1762323;81;21145;-55
2021/04/11 06:51:48;;;;;;;11.63;3.62;;;;;;;12.15;33.03;102087.63;1762260;81;20983;-55
2021/04/11 06:54:36;;;;;;;12.43;4.13;;;;;;;12.24;32.41;102074.45;1762495;81;21494;-55
2021/04/11 06:57:22;;;;;;;10.05;3.95;;;;;;;12.31;32.79;102077.44;1729586;81;21065;-55
2021/04/11 07:00:33;;;;;;;16.40;3.85;;;;;;;12.41;32.86;102098.30;1738312;82;21114;-55
2021/04/11 07:03:31;;;;;;;12.05;4.25;;;;;;;12.41;32.57;102079.47;1738393;82;21758;-55
2021/04/11 07:06:39;;;;;;;16.60;4.22;;;;;;;12.36;32.13;102108.28;1767372;81;21140;-55
2021/04/11 07:09:26;;;;;;;7.47;3.90;;;;;;;12.35;32.73;102083.64;1738290;82;21112;-55
2021/04/11 07:12:25;;;;;;;10.70;4.08;;;;;;;12.43;33.10;102089.29;1713618;82;21075;-56
2021/04/11 07:15:21;;;;;;;8.90;4.30;;;;;;;12.49;33.69;102082.90;1758426;81;21097;-55
2021/04/11 07:18:28;;;;;;;8.20;4.53;;;;;;;12.56;34.47;102081.84;1737515;82;21374;-55
2021/04/11 07:21:18;;;;;;;8.78;3.80;;;;;;;12.66;33.79;102081.62;1734856;82;20949;-55
2021/04/11 07:24:42;;;;;;;9.15;4.83;;;;;;;12.75;34.00;102070.19;1734814;80;21052;-55
2021/04/11 07:27:27;;;;;;;10.78;4.47;;;;;;;12.82;34.18;102077.66;1734833;82;21167;-55
2021/04/11 07:30:25;;;;;;;10.93;4.28;;;;;;;12.87;34.22;102075.74;1734863;82;21091;-55
2021/04/11 07:33:42;;;;;;;11.05;4.33;;;;;;;12.94;34.33;102076.97;1735321;81;21711;-56
2021/04/11 07:36:31;;;;;;;10.65;4.50;;;;;;;12.99;33.05;102077.73;1760800;81;21129;-56
2021/04/11 07:39:47;;;;;;;8.35;4.53;;;;;;;13.03;33.47;102084.81;1760893;81;21136;-57
2021/04/11 07:42:46;;;;;;;9.23;4.28;;;;;;;13.07;32.79;102070.34;1760877;81;20935;-55
2021/04/11 07:45:52;;;;;;;7.58;4.47;;;;;;;13.07;32.72;102062.75;1760976;81;21112;-56
2021/04/11 07:48:44;;;;;;;9.30;4.10;;;;;;;13.01;32.66;102061.95;1761044;81;21792;-55
2021/04/11 07:51:29;;;;;;;10.20;4.85;;;;;;;13.07;32.99;102066.30;1760888;81;21116;-56
2021/04/11 07:54:36;;;;;;;6.62;4.58;;;;;;;13.15;33.00;102071.51;1761109;81;21089;-55
2021/04/11 07:57:18;;;;;;;13.10;5.15;;;;;;;13.19;31.84;102075.89;1759107;81;21094;-55
2021/04/11 08:00:15;;;;;;;10.82;5.25;;;;;;;13.19;31.08;102082.62;1750906;81;21081;-55
2021/04/11 08:03:06;;;;;;;10.20;4.95;;;;;;;13.20;30.89;102061.50;1757504;81;21701;-55
2021/04/11 08:06:08;;;;;;;8.40;5.15;;;;;;;13.23;30.03;102067.28;1757203;81;21007;-55
2021/04/11 08:09:04;;;;;;;10.63;6.00;;;;;;;13.20;30.06;102072.75;1757467;81;21090;-55
2021/04/11 08:12:03;;;;;;;12.93;7.10;;;;;;;13.16;29.89;102064.75;1757335;81;21093;-55
2021/04/11 08:14:46;;;;;;;12.25;6.72;;;;;;;13.13;30.84;102055.38;1757357;81;21097;-54
2021/04/11 08:18:04;;;;;;;9.45;5.17;;;;;;;13.12;31.80;102063.03;1757369;81;21693;-56
2021/04/11 08:21:06;;;;;;;12.15;6.05;;;;;;;13.10;31.88;102057.28;1673176;85;21208;-55
2021/04/11 08:24:10;;;;;;;12.88;5.83;;;;;;;13.10;31.38;102054.11;1673140;85;21133;-55
2021/04/11 08:27:19;;;;;;;18.30;7.45;;;;;;;13.06;31.83;102055.12;1673273;85;21089;-55
2021/04/11 08:30:12;;;;;;;14.83;8.63;;;;;;;13.06;31.92;102054.25;1673173;85;21118;-55
2021/04/11 08:33:23;;;;;;;13.25;7.45;;;;;;;13.10;32.14;102064.02;1676951;85;21374;-55
2021/04/11 08:36:33;;;;;;;11.83;6.33;;;;;;;13.13;31.83;102052.68;1673182;85;21085;-55
2021/04/11 08:39:44;;;;;;;13.08;6.83;;;;;;;13.12;31.78;102077.84;1649638;85;21096;-55
2021/04/11 08:42:36;;;;;;;12.45;6.25;;;;;;;13.08;32.06;102049.23;1642439;87;21588;-55
2021/04/11 08:45:29;;;;;;;12.30;6.42;;;;;;;13.06;32.86;102056.94;1649683;87;21181;-54
2021/04/11 08:48:22;;;;;;;11.75;6.47;;;;;;;13.06;33.76;102051.08;1649668;87;21563;-54
2021/04/11 08:50:58;;;;;;;19.02;6.97;;;;;;;13.10;34.23;102039.30;1621730;88;21487;-56
2021/04/11 08:53:40;;;;;;;11.85;6.33;;;;;;;13.16;34.03;102048.59;1649681;87;21009;-55
2021/04/11 08:56:17;;;;;;;16.10;6.65;;;;;;;13.17;33.95;102054.41;1652312;85;21105;-56
2021/04/11 08:58:56;;;;;;;13.03;6.72;;;;;;;13.18;34.26;102046.74;1671007;85;21204;-56
2021/04/11 09:01:40;;;;;;;16.55;6.45;;;;;;;13.20;34.12;102040.44;1670482;85;21214;-55
2021/04/11 09:04:29;;;;;;;9.40;5.97;;;;;;;13.23;34.30;102039.00;1687512;85;21778;-56
2021/04/11 09:07:17;;;;;;;14.68;6.55;;;;;;;13.28;34.36;102047.84;1687274;85;21097;-56
2021/04/11 09:10:30;;;;;;;10.43;6.22;;;;;;;13.27;34.50;102034.86;1687318;85;21089;-56
2021/04/11 09:13:25;;;;;;;10.40;5.70;;;;;;;13.32;34.26;102036.06;1671007;85;21110;-55
2021/04/11 09:16:23;;;;;;;9.35;5.25;;;;;;;13.36;33.78;102036.39;1687570;85;21672;-56
2021/04/11 09:19:04;;;;;;;8.88;5.15;;;;;;;13.38;34.10;102018.86;1627571;85;21208;-55
2021/04/11 09:21:54;;;;;;;10.13;4.60;;;;;;;13.38;33.47;102030.53;1671806;85;21118;-56
2021/04/11 09:24:38;;;;;;;7.97;4.87;;;;;;;13.40;34.11;102029.13;1671781;85;21180;-56
2021/04/11 09:27:20;;;;;;;8.75;4.90;;;;;;;13.40;33.87;102020.59;1671776;85;21169;-56
2021/04/11 09:30:16;;;;;;;7.58;5.08;;;;;;;13.42;33.79;102024.58;1654465;86;21633;-56
2021/04/11 09:33:18;;;;;;;8.95;5.00;;;;;;;13.39;33.50;102024.22;1671841;85;21148;-55
2021/04/11 09:36:40;;;;;;;8.45;4.40;;;;;;;13.43;34.12;102010.22;1654465;86;21211;-56
2021/04/11 09:39:38;;;;;;;8.30;4.70;;;;;;;13.49;33.50;102009.17;1631626;85;21127;-55
2021/04/11 09:42:50;;;;;;;6.95;4.25;;;;;;;13.52;33.40;102021.21;1671907;85;21200;-56
2021/04/11 09:45:40;;;;;;;10.85;5.12;;;;;;;13.52;33.31;102007.30;1654512;86;21566;-55
2021/04/11 09:48:34;;;;;;;8.55;5.47;;;;;;;13.58;33.29;102012.95;1671802;85;21153;-55
2021/04/11 09:51:14;;;;;;;9.45;4.60;;;;;;;13.61;32.62;102000.29;1671804;85;21200;-55
2021/04/11 09:54:21;;;;;;;12.70;4.97;;;;;;;13.64;32.60;102001.12;1653719;86;21274;-55
2021/04/11 09:57:25;;;;;;;7.90;4.40;;;;;;;13.65;32.50;102002.45;1669903;85;21209;-56
2021/04/11 10:00:15;;;;;;;8.43;4.75;;;;;;;13.71;32.24;102004.09;1688064;83;21495;-55
2021/04/11 10:03:06;;;;;;;7.58;4.53;;;;;;;13.74;32.19;102006.22;1703233;83;21154;-55
2021/04/11 10:05:51;;;;;;;11.00;5.00;;;;;;;13.79;31.20;102003.84;1703351;84;21202;-56
2021/04/11 10:08:41;;;;;;;9.28;5.12;;;;;;;13.75;30.80;101999.89;1703393;83;21091;-55
2021/04/11 10:11:29;;;;;;;8.30;5.28;;;;;;;13.70;30.63;101993.76;1703404;83;21181;-56
2021/04/11 10:14:15;;;;;;;7.72;4.47;;;;;;;13.63;30.60;101996.66;1703402;84;22766;-55
2021/04/11 10:17:24;;;;;;;8.65;4.60;;;;;;;13.55;30.66;101994.17;1693210;83;21138;-55
2021/04/11 10:20:16;;;;;;;7.85;5.03;;;;;;;13.51;30.83;101988.46;1700470;84;21183;-56
2021/04/11 10:22:59;;;;;;;9.25;4.65;;;;;;;13.56;30.50;101987.86;1667875;85;21157;-57
2021/04/11 10:25:32;;;;;;;7.08;4.45;;;;;;;13.58;30.08;101986.91;1668015;86;21090;-56
2021/04/11 10:28:33;;;;;;;6.42;4.70;;;;;;;13.57;30.06;101983.80;1667881;86;21283;-55
2021/04/11 10:31:29;;;;;;;7.65;4.70;;;;;;;13.56;29.72;101991.45;1655387;86;21126;-56
2021/04/11 10:34:17;;;;;;;8.85;4.85;;;;;;;13.56;30.01;101986.06;1654497;86;21163;-56
2021/04/11 10:37:18;;;;;;;6.40;4.42;;;;;;;13.56;29.90;101974.39;1667850;86;21157;-56
2021/04/11 10:40:26;;;;;;;7.55;4.92;;;;;;;13.52;30.00;101970.02;1667898;86;21109;-56
2021/04/11 10:43:33;;;;;;;7.55;4.90;;;;;;;13.52;30.05;101979.45;1667895;86;21678;-55
2021/04/11 10:46:12;;;;;;;9.90;4.75;;;;;;;13.50;29.82;101970.53;1667817;86;21192;-57
2021/04/11 10:49:20;;;;;;;6.95;4.75;;;;;;;13.52;29.86;101957.45;1661920;86;21158;-55
2021/04/11 10:52:36;;;;;;;9.58;4.90;;;;;;;13.56;29.60;101969.00;1668003;86;21149;-55
2021/04/11 10:55:36;;;;;;;7.22;4.80;;;;;;;13.59;29.39;101966.22;1667925;86;21170;-55
2021/04/11 10:58:55;;;;;;;6.83;4.87;;;;;;;13.64;29.45;101960.70;1658311;86;21264;-55
2021/04/11 11:01:52;;;;;;;6.03;4.20;;;;;;;13.64;29.15;101961.61;1674420;85;21173;-55
2021/04/11 11:04:31;;;;;;;9.60;4.70;;;;;;;13.58;29.10;101965.34;1645195;85;21081;-54
2021/04/11 11:07:26;;;;;;;6.65;4.12;;;;;;;13.59;28.86;101948.70;1674393;85;21106;-56
2021/04/11 11:10:29;;;;;;;9.03;4.35;;;;;;;13.56;29.06;101938.02;1674475;85;21141;-55
2021/04/11 11:13:42;;;;;;;9.48;4.40;;;;;;;13.58;29.14;101945.59;1674398;85;21154;-56
2021/04/11 11:16:31;;;;;;;6.03;4.10;;;;;;;13.57;29.01;101940.67;1674427;85;21101;-54
2021/04/11 11:19:23;;;;;;;7.12;3.92;;;;;;;13.58;28.96;101938.40;1659600;85;21101;-55
2021/04/11 11:22:18;;;;;;;6.70;4.28;;;;;;;13.57;28.96;101942.02;1648315;87;21477;-55
2021/04/11 11:25:15;;;;;;;9.73;4.58;;;;;;;13.58;28.88;101928.97;1648210;87;21165;-55
2021/04/11 11:28:18;;;;;;;9.60;4.33;;;;;;;13.60;29.14;101931.63;1648233;87;21319;-55
2021/04/11 11:31:13;;;;;;;7.25;4.25;;;;;;;13.66;28.98;101919.32;1648214;87;21164;-55
2021/04/11 11:34:22;;;;;;;6.75;3.90;;;;;;;13.70;28.81;101916.05;1587618;90;21145;-55
2021/04/11 11:37:15;;;;;;;8.23;4.53;;;;;;;13.75;28.89;101910.08;1648199;87;21126;-55
2021/04/11 11:39:48;;;;;;;7.03;4.37;;;;;;;13.78;28.94;101904.59;1633124;87;21208;-55
2021/04/11 11:42:59;;;;;;;7.35;4.05;;;;;;;13.79;29.01;101899.62;1648179;87;21461;-55
2021/04/11 11:46:09;;;;;;;6.92;4.40;;;;;;;13.80;28.99;101891.05;1664927;86;21077;-54
2021/04/11 11:49:03;;;;;;;7.67;4.45;;;;;;;13.82;29.15;101886.53;1664920;86;21074;-56
2021/04/11 11:51:57;;;;;;;7.78;4.30;;;;;;;13.83;29.32;101877.51;1664971;86;21082;-56
2021/04/11 11:54:42;;;;;;;8.63;4.72;;;;;;;13.88;29.03;101883.63;1665031;86;21173;-56
2021/04/11 11:57:38;;;;;;;9.78;5.20;;;;;;;13.82;29.03;101894.61;1656133;86;21941;-55
2021/04/11 12:00:26;;;;;;;9.95;4.85;;;;;;;13.79;29.22;101887.94;1669931;86;21145;-55
2021/04/11 12:03:12;;;;;;;6.92;4.67;;;;;;;13.80;29.18;101888.36;1669977;86;21120;-56
2021/04/11 12:06:19;;;;;;;8.80;4.80;;;;;;;13.79;29.42;101882.55;1669989;86;21165;-55
2021/04/11 12:09:26;;;;;;;9.73;4.92;;;;;;;13.81;29.45;101882.03;1648957;87;21175;-56
2021/04/11 12:12:12;;;;;;;7.62;4.62;;;;;;;13.81;29.31;101880.69;1669949;86;21232;-55
2021/04/11 12:15:09;;;;;;;6.90;4.62;;;;;;;13.82;29.42;101874.40;1669921;86;21183;-55
2021/04/11 12:17:57;;;;;;;6.50;4.47;;;;;;;13.84;29.68;101868.49;1645535;85;21147;-56
2021/04/11 12:20:39;;;;;;;9.50;4.53;;;;;;;13.90;29.71;101860.20;1612488;86;21168;-54
2021/04/11 12:23:18;;;;;;;8.05;4.47;;;;;;;13.96;29.54;101865.39;1671821;85;21184;-56
2021/04/11 12:25:46;;;;;;;7.72;4.67;;;;;;;13.98;29.47;101859.48;1646831;85;21550;-55
2021/04/11 12:28:24;;;;;;;10.88;4.55;;;;;;;13.99;29.41;101861.25;1671575;85;21031;-55
2021/04/11 12:30:53;;;;;;;10.32;4.78;;;;;;;13.99;29.54;101861.25;1671723;85;21164;-55
2021/04/11 12:33:32;;;;;;;8.03;4.97;;;;;;;14.01;29.49;101849.94;1671788;85;21133;-55
2021/04/11 12:36:05;;;;;;;7.20;4.47;;;;;;;14.03;29.61;101850.77;1671760;85;21086;-55
2021/04/11 12:38:54;;;;;;;8.95;4.75;;;;;;;14.04;29.63;101849.88;1671519;85;26628;-55
2021/04/11 12:41:26;;;;;;;8.65;4.70;;;;;;;14.09;29.69;101847.49;1671652;85;21165;-55